createdAt,value
2018-12-18T00:00:26.130Z,97.59
2018-12-18T00:01:26.156Z,97.49
2018-12-18T00:02:26.178Z,96.97
2018-12-18T00:03:26.085Z,97.38
2018-12-18T00:04:26.194Z,97.38
2018-12-18T00:05:26.115Z,97.28
2018-12-18T00:06:26.062Z,97.59
2018-12-18T00:07:26.086Z,97.38
2018-12-18T00:08:26.063Z,97.28
2018-12-18T00:09:26.028Z,97.49
2018-12-18T00:10:26.025Z,97.49
2018-12-18T00:11:25.997Z,97.54
2018-12-18T00:12:26.006Z,97.33
2018-12-18T00:13:26.021Z,96.34
2018-12-18T00:14:25.964Z,96.97
2018-12-18T00:15:25.954Z,96.86
2018-12-18T00:16:25.939Z,96.66
2018-12-18T00:17:25.941Z,96.66
2018-12-18T00:18:25.945Z,97.07
2018-12-18T00:19:25.927Z,96.82
2018-12-18T00:20:25.894Z,97.64
2018-12-18T00:21:25.927Z,96.82
2018-12-18T00:22:25.880Z,96.97
2018-12-18T00:23:25.888Z,97.49
2018-12-18T00:24:25.854Z,97.44
2018-12-18T00:25:25.859Z,97.44
2018-12-18T00:26:25.830Z,97.44
2018-12-18T00:27:25.825Z,97.49
2018-12-18T00:28:25.818Z,97.38
2018-12-18T00:29:25.801Z,96.97
2018-12-18T00:30:25.789Z,97.59
2018-12-18T00:31:25.790Z,97.69
2018-12-18T00:32:25.767Z,97.17
2018-12-18T00:33:25.774Z,97.28
2018-12-18T00:34:25.770Z,97.28
2018-12-18T00:35:25.735Z,97.07
2018-12-18T00:36:25.724Z,97.38
2018-12-18T00:37:25.718Z,97.49
2018-12-18T00:38:25.727Z,97.38
2018-12-18T00:39:25.700Z,97.69
2018-12-18T00:40:25.678Z,97.49
2018-12-18T00:41:25.751Z,97.59
2018-12-18T00:42:25.681Z,97.49
2018-12-18T00:43:25.725Z,97.49
2018-12-18T00:44:25.639Z,97.07
2018-12-18T00:45:25.639Z,97.38
2018-12-18T00:46:25.639Z,96.97
2018-12-18T00:47:25.611Z,97.49
2018-12-18T00:48:25.597Z,97.69
2018-12-18T00:49:25.577Z,97.38
2018-12-18T00:50:25.573Z,96.76
2018-12-18T00:51:25.559Z,96.45
2018-12-18T00:52:25.546Z,96.45
2018-12-18T00:53:25.561Z,96.45
2018-12-18T00:54:25.528Z,96.45
2018-12-18T00:55:25.511Z,96.55
2018-12-18T00:56:25.503Z,96.55
2018-12-18T00:57:25.517Z,96.66
2018-12-18T00:58:25.492Z,96.86
2018-12-18T00:59:25.469Z,97.59
2018-12-18T01:00:25.487Z,97.07
2018-12-18T01:01:25.447Z,97.49
2018-12-18T01:02:25.468Z,97.17
2018-12-18T01:03:25.440Z,97.28
2018-12-18T01:04:25.411Z,97.07
2018-12-18T01:05:25.403Z,97.38
2018-12-18T01:06:25.411Z,97.38
2018-12-18T01:07:25.385Z,97.07
2018-12-18T01:08:25.386Z,97.07
2018-12-18T01:09:25.357Z,97.17
2018-12-18T01:10:25.347Z,97.49
2018-12-18T01:11:25.343Z,97.38
2018-12-18T01:12:25.325Z,97.59
2018-12-18T01:13:25.362Z,97.38
2018-12-18T01:14:25.303Z,97.59
2018-12-18T01:15:25.294Z,97.28
2018-12-18T01:16:25.292Z,97.59
2018-12-18T01:17:25.283Z,97.49
2018-12-18T01:18:25.314Z,97.28
2018-12-18T01:19:25.258Z,97.49
2018-12-18T01:20:25.241Z,97.17
2018-12-18T01:21:25.243Z,97.49
2018-12-18T01:22:25.219Z,96.86
2018-12-18T01:23:25.242Z,96.92
2018-12-18T01:24:25.191Z,97.49
2018-12-18T01:25:25.179Z,97.49
2018-12-18T01:26:25.174Z,96.86
2018-12-18T01:27:25.181Z,96.55
2018-12-18T01:28:25.185Z,96.24
2018-12-18T01:29:25.148Z,96.24
2018-12-18T01:30:25.135Z,96.24
2018-12-18T01:31:25.142Z,96.45
2018-12-18T01:32:25.113Z,96.76
2018-12-18T01:33:25.106Z,97.07
2018-12-18T01:34:25.082Z,96.86
2018-12-18T01:35:25.086Z,97.49
2018-12-18T01:36:25.063Z,97.49
2018-12-18T01:37:25.053Z,97.07
2018-12-18T01:38:25.103Z,97.07
2018-12-18T01:39:25.033Z,97.28
2018-12-18T01:40:25.039Z,97.17
2018-12-18T01:41:25.025Z,97.28
2018-12-18T01:42:24.993Z,97.49
2018-12-18T01:43:25.035Z,97.28
2018-12-18T01:44:24.990Z,97.07
2018-12-18T01:45:24.988Z,97.38
2018-12-18T01:46:24.950Z,97.17
2018-12-18T01:47:24.939Z,97.07
2018-12-18T01:48:24.928Z,97.01
2018-12-18T01:49:24.939Z,97.59
2018-12-18T01:50:24.904Z,97.32
2018-12-18T01:51:24.908Z,97.63
2018-12-18T01:52:24.892Z,97.42
2018-12-18T01:53:24.872Z,97.32
2018-12-18T01:54:24.871Z,97.32
2018-12-18T01:55:24.850Z,97.74
2018-12-18T01:56:24.842Z,97.74
2018-12-18T01:57:24.827Z,97.94
2018-12-18T01:58:24.824Z,97.78
2018-12-18T01:59:24.837Z,97.78
2018-12-18T02:00:24.801Z,97.63
2018-12-18T02:01:24.796Z,97.67
2018-12-18T02:02:24.772Z,97.84
2018-12-18T02:03:24.762Z,97.67
2018-12-18T02:04:24.770Z,97.99
2018-12-18T02:05:24.751Z,98.40
2018-12-18T02:06:24.737Z,97.99
2018-12-18T02:07:24.721Z,98.30
2018-12-18T02:08:24.707Z,97.88
2018-12-18T02:09:24.716Z,98.61
2018-12-18T02:10:24.696Z,98.40
2018-12-18T02:11:24.674Z,98.40
2018-12-18T02:12:24.675Z,98.71
2018-12-18T02:13:24.657Z,98.30
2018-12-18T02:14:24.669Z,99.23
2018-12-18T02:15:24.639Z,99.23
2018-12-18T02:16:24.632Z,98.30
2018-12-18T02:17:24.608Z,97.99
2018-12-18T02:18:24.602Z,99.23
2018-12-18T02:19:24.600Z,98.71
2018-12-18T02:20:24.579Z,98.71
2018-12-18T02:21:24.572Z,98.86
2018-12-18T02:22:24.553Z,99.02
2018-12-18T02:23:24.543Z,98.82
2018-12-18T02:24:24.556Z,98.92
2018-12-18T02:25:24.524Z,98.61
2018-12-18T02:26:24.520Z,98.61
2018-12-18T02:27:24.522Z,98.50
2018-12-18T02:28:24.491Z,98.44
2018-12-18T02:29:24.487Z,98.75
2018-12-18T02:30:24.493Z,98.75
2018-12-18T02:31:24.466Z,98.65
2018-12-18T02:32:24.453Z,98.82
2018-12-18T02:33:24.446Z,98.96
2018-12-18T02:34:24.451Z,98.65
2018-12-18T02:35:24.421Z,98.86
2018-12-18T02:36:24.400Z,98.96
2018-12-18T02:37:24.400Z,98.75
2018-12-18T02:38:24.387Z,98.96
2018-12-18T02:39:24.384Z,98.86
2018-12-18T02:40:24.359Z,98.71
2018-12-18T02:41:24.358Z,99.02
2018-12-18T02:42:24.358Z,98.71
2018-12-18T02:43:24.328Z,98.30
2018-12-18T02:44:24.338Z,98.44
2018-12-18T02:45:24.309Z,98.34
2018-12-18T02:46:24.290Z,98.24
2018-12-18T02:47:24.285Z,98.24
2018-12-18T02:48:24.290Z,98.34
2018-12-18T02:49:24.282Z,98.03
2018-12-18T02:50:24.262Z,98.34
2018-12-18T02:51:24.238Z,98.34
2018-12-18T02:52:24.231Z,98.34
2018-12-18T02:53:24.214Z,98.55
2018-12-18T02:54:24.217Z,98.34
2018-12-18T02:55:24.205Z,98.44
2018-12-18T02:56:24.182Z,98.24
2018-12-18T02:57:24.172Z,98.44
2018-12-18T02:58:24.157Z,98.03
2018-12-18T02:59:24.161Z,98.55
2018-12-18T03:00:24.151Z,98.34
2018-12-18T03:01:24.137Z,98.55
2018-12-18T03:02:24.123Z,98.65
2018-12-18T03:03:24.104Z,99.32
2018-12-18T03:04:24.103Z,99.01
2018-12-18T03:05:24.083Z,98.70
2018-12-18T03:06:24.074Z,98.70
2018-12-18T03:07:24.075Z,98.60
2018-12-18T03:08:24.063Z,98.80
2018-12-18T03:09:24.062Z,98.95
2018-12-18T03:10:24.034Z,98.80
2018-12-18T03:11:24.034Z,98.95
2018-12-18T03:12:24.031Z,99.22
2018-12-18T03:13:24.002Z,98.95
2018-12-18T03:14:24.000Z,99.57
2018-12-18T03:15:24.002Z,99.78
2018-12-18T03:16:23.987Z,99.63
2018-12-18T03:17:23.958Z,99.37
2018-12-18T03:18:23.959Z,99.57
2018-12-18T03:19:23.947Z,99.16
2018-12-18T03:20:23.942Z,99.47
2018-12-18T03:21:23.911Z,99.78
2018-12-18T03:22:23.909Z,99.78
2018-12-18T03:23:23.897Z,99.99
2018-12-18T03:24:23.893Z,99.88
2018-12-18T03:25:23.867Z,99.78
2018-12-18T03:26:23.930Z,99.88
2018-12-18T03:27:23.840Z,99.99
2018-12-18T03:28:23.833Z,99.99
2018-12-18T03:29:23.840Z,99.88
2018-12-18T03:30:23.842Z,99.99
2018-12-18T03:31:23.804Z,99.99
2018-12-18T03:32:23.827Z,99.99
2018-12-18T03:33:23.775Z,99.88
2018-12-18T03:34:28.290Z,99.68
2018-12-18T03:35:23.752Z,99.93
2018-12-18T03:36:23.769Z,99.72
2018-12-18T03:37:23.757Z,99.93
2018-12-18T03:38:23.730Z,99.99
2018-12-18T03:39:23.743Z,99.99
2018-12-18T03:40:23.703Z,99.99
2018-12-18T03:41:23.694Z,99.99
2018-12-18T03:42:23.685Z,99.99
2018-12-18T03:43:23.685Z,99.99
2018-12-18T03:44:23.674Z,99.99
2018-12-18T03:45:23.651Z,99.99
2018-12-18T03:46:23.633Z,99.99
2018-12-18T03:47:23.623Z,99.99
2018-12-18T03:48:23.623Z,99.99
2018-12-18T03:49:23.609Z,99.99
2018-12-18T03:50:23.648Z,99.72
2018-12-18T03:51:23.578Z,99.93
2018-12-18T03:52:23.579Z,99.99
2018-12-18T03:53:23.556Z,99.93
2018-12-18T03:54:23.556Z,99.93
2018-12-18T03:55:23.556Z,99.93
2018-12-18T03:56:23.564Z,99.99
2018-12-18T03:57:23.511Z,99.99
2018-12-18T03:58:23.511Z,99.93
2018-12-18T03:59:23.503Z,99.99
2018-12-18T04:00:23.497Z,99.93
2018-12-18T04:01:23.492Z,99.99
2018-12-18T04:02:23.463Z,99.99
2018-12-18T04:03:23.451Z,99.99
2018-12-18T04:04:23.434Z,99.99
2018-12-18T04:05:23.436Z,99.99
2018-12-18T04:06:23.421Z,99.99
2018-12-18T04:07:23.421Z,99.99
2018-12-18T04:08:23.386Z,99.99
2018-12-18T04:09:23.381Z,99.99
2018-12-18T04:10:23.399Z,99.99
2018-12-18T04:11:23.377Z,99.99
2018-12-18T04:12:23.362Z,99.99
2018-12-18T04:13:23.349Z,99.99
2018-12-18T04:14:23.334Z,99.99
2018-12-18T04:15:23.328Z,99.99
2018-12-18T04:16:23.321Z,99.99
2018-12-18T04:17:23.302Z,99.99
2018-12-18T04:18:23.332Z,99.99
2018-12-18T04:19:23.267Z,99.99
2018-12-18T04:20:23.268Z,99.99
2018-12-18T04:21:23.245Z,99.99
2018-12-18T04:22:23.247Z,99.99
2018-12-18T04:23:23.244Z,99.99
2018-12-18T04:24:23.235Z,99.99
2018-12-18T04:25:23.275Z,99.99
2018-12-18T04:26:23.197Z,99.99
2018-12-18T04:27:23.180Z,99.99
2018-12-18T04:28:23.181Z,99.99
2018-12-18T04:29:23.180Z,99.99
2018-12-18T04:30:23.161Z,99.99
2018-12-18T04:31:23.134Z,99.99
2018-12-18T04:32:23.121Z,99.99
2018-12-18T04:33:23.132Z,99.99
2018-12-18T04:34:23.119Z,99.98
2018-12-18T04:35:23.213Z,99.99
2018-12-18T04:36:23.081Z,99.99
2018-12-18T04:37:23.069Z,99.99
2018-12-18T04:38:23.072Z,99.99
2018-12-18T04:39:23.058Z,99.99
2018-12-18T04:40:23.052Z,99.99
2018-12-18T04:41:23.055Z,99.99
2018-12-18T04:42:23.016Z,99.99
2018-12-18T04:43:23.007Z,99.99
2018-12-18T04:44:22.999Z,99.99
2018-12-18T04:45:23.018Z,99.98
2018-12-18T04:46:23.005Z,99.99
2018-12-18T04:47:22.957Z,99.99
2018-12-18T04:48:22.945Z,99.99
2018-12-18T04:49:22.944Z,99.99
2018-12-18T04:50:22.945Z,99.98
2018-12-18T04:51:22.929Z,99.99
2018-12-18T04:52:22.924Z,99.99
2018-12-18T04:53:22.945Z,99.99
2018-12-18T04:54:22.887Z,99.99
2018-12-18T04:55:22.885Z,99.99
2018-12-18T04:56:22.877Z,99.99
2018-12-18T04:57:22.870Z,99.99
2018-12-18T04:58:22.868Z,99.99
2018-12-18T04:59:22.868Z,99.99
2018-12-18T05:00:22.834Z,99.99
2018-12-18T05:01:22.815Z,99.99
2018-12-18T05:02:22.813Z,99.99
2018-12-18T05:03:22.806Z,99.99
2018-12-18T05:04:22.774Z,99.99
2018-12-18T05:05:22.767Z,99.99
2018-12-18T05:06:22.763Z,99.99
2018-12-18T05:07:22.746Z,99.99
2018-12-18T05:08:22.731Z,99.99
2018-12-18T05:09:22.730Z,99.99
2018-12-18T05:10:22.709Z,99.99
2018-12-18T05:11:22.722Z,99.99
2018-12-18T05:12:22.684Z,99.99
2018-12-18T05:13:22.670Z,99.99
2018-12-18T05:14:22.666Z,99.99
2018-12-18T05:15:22.658Z,99.99
2018-12-18T05:16:22.972Z,99.99
2018-12-18T05:17:22.630Z,99.99
2018-12-18T05:18:22.617Z,99.99
2018-12-18T05:19:22.609Z,99.99
2018-12-18T05:20:22.593Z,99.99
2018-12-18T05:21:22.598Z,99.99
2018-12-18T05:22:22.573Z,99.99
2018-12-18T05:23:22.591Z,99.99
2018-12-18T05:24:22.554Z,99.99
2018-12-18T05:25:22.557Z,99.99
2018-12-18T05:26:22.545Z,99.99
2018-12-18T05:27:22.541Z,99.99
2018-12-18T05:28:22.525Z,99.99
2018-12-18T05:29:22.504Z,99.99
2018-12-18T05:30:22.493Z,99.99
2018-12-18T05:31:22.484Z,99.99
2018-12-18T05:32:22.463Z,99.99
2018-12-18T05:33:22.487Z,99.99
2018-12-18T05:34:22.440Z,99.99
2018-12-18T05:35:22.430Z,99.99
2018-12-18T05:36:22.433Z,99.99
2018-12-18T05:37:22.407Z,99.99
2018-12-18T05:38:22.440Z,99.99
2018-12-18T05:39:22.398Z,99.99
2018-12-18T05:40:22.407Z,99.99
2018-12-18T05:41:22.400Z,99.99
2018-12-18T05:42:22.364Z,99.99
2018-12-18T05:43:22.344Z,99.99
2018-12-18T05:44:22.332Z,99.99
2018-12-18T05:45:22.334Z,99.99
2018-12-18T05:46:22.336Z,99.99
2018-12-18T05:47:22.299Z,99.99
2018-12-18T05:48:22.312Z,99.99
2018-12-18T05:49:22.273Z,99.99
2018-12-18T05:50:22.265Z,99.99
2018-12-18T05:51:22.277Z,99.99
2018-12-18T05:52:22.243Z,99.99
2018-12-18T05:53:22.302Z,99.99
2018-12-18T05:54:22.222Z,99.99
2018-12-18T05:55:22.209Z,99.99
2018-12-18T05:56:22.223Z,99.99
2018-12-18T05:57:22.210Z,99.99
2018-12-18T05:58:22.177Z,99.99
2018-12-18T05:59:22.174Z,99.99
2018-12-18T06:00:22.174Z,99.99
2018-12-18T06:01:22.159Z,99.99
2018-12-18T06:02:22.145Z,99.99
2018-12-18T06:03:22.150Z,99.99
2018-12-18T06:04:22.117Z,99.99
2018-12-18T06:05:22.120Z,99.99
2018-12-18T06:06:22.129Z,99.99
2018-12-18T06:07:22.081Z,99.99
2018-12-18T06:08:22.085Z,99.99
2018-12-18T06:09:22.053Z,99.99
2018-12-18T06:10:22.051Z,99.99
2018-12-18T06:11:22.063Z,99.99
2018-12-18T06:12:22.022Z,99.99
2018-12-18T06:13:22.018Z,99.99
2018-12-18T06:14:22.003Z,99.99
2018-12-18T06:15:21.989Z,99.99
2018-12-18T06:16:22.024Z,99.99
2018-12-18T06:17:21.967Z,99.99
2018-12-18T06:18:21.951Z,99.99
2018-12-18T06:19:21.949Z,99.99
2018-12-18T06:20:21.959Z,99.99
2018-12-18T06:21:21.963Z,99.99
2018-12-18T06:22:21.958Z,99.99
2018-12-18T06:23:21.936Z,99.99
2018-12-18T06:24:21.886Z,99.99
2018-12-18T06:25:21.881Z,99.99
2018-12-18T06:26:21.884Z,99.52
2018-12-18T06:27:21.861Z,99.87
2018-12-18T06:28:21.864Z,99.87
2018-12-18T06:29:21.840Z,99.52
2018-12-18T06:30:21.820Z,99.31
2018-12-18T06:31:21.832Z,99.46
2018-12-18T06:32:21.809Z,99.62
2018-12-18T06:33:21.788Z,99.72
2018-12-18T06:34:21.775Z,99.77
2018-12-18T06:35:21.766Z,99.46
2018-12-18T06:36:21.793Z,99.31
2018-12-18T06:37:21.747Z,99.99
2018-12-18T06:38:21.763Z,99.87
2018-12-18T06:39:21.760Z,99.93
2018-12-18T06:40:21.727Z,99.99
2018-12-18T06:41:21.992Z,99.99
2018-12-18T06:42:21.688Z,99.93
2018-12-18T06:43:21.686Z,99.52
2018-12-18T06:44:21.701Z,99.52
2018-12-18T06:45:21.680Z,99.98
2018-12-18T06:46:21.663Z,99.62
2018-12-18T06:47:21.635Z,99.62
2018-12-18T06:48:21.629Z,99.72
2018-12-18T06:49:21.623Z,99.99
2018-12-18T06:50:21.599Z,99.82
2018-12-18T06:51:21.601Z,99.99
2018-12-18T06:52:21.589Z,99.31
2018-12-18T06:53:21.566Z,99.21
2018-12-18T06:54:22.437Z,99.52
2018-12-18T06:55:21.550Z,99.52
2018-12-18T06:56:21.556Z,99.56
2018-12-18T06:57:21.545Z,99.77
2018-12-18T06:58:21.513Z,99.77
2018-12-18T06:59:21.503Z,99.35
2018-12-18T07:00:21.494Z,99.56
2018-12-18T07:01:21.502Z,99.99
2018-12-18T07:02:21.491Z,99.99
2018-12-18T07:03:21.485Z,99.99
2018-12-18T07:04:21.444Z,99.99
2018-12-18T07:05:21.455Z,99.99
2018-12-18T07:06:21.474Z,99.98
2018-12-18T07:07:21.433Z,99.98
2018-12-18T07:08:21.402Z,99.99
2018-12-18T07:09:21.390Z,99.99
2018-12-18T07:10:21.382Z,99.99
2018-12-18T07:11:21.372Z,99.99
2018-12-18T07:12:21.379Z,99.99
2018-12-18T07:13:21.346Z,99.99
2018-12-18T07:14:21.350Z,99.99
2018-12-18T07:15:21.339Z,99.99
2018-12-18T07:16:21.313Z,99.99
2018-12-18T07:17:21.315Z,99.99
2018-12-18T07:18:21.304Z,99.99
2018-12-18T07:19:21.280Z,99.99
2018-12-18T07:20:21.276Z,99.99
2018-12-18T07:21:21.257Z,99.99
2018-12-18T07:22:21.261Z,99.99
2018-12-18T07:23:21.258Z,99.99
2018-12-18T07:24:21.239Z,99.99
2018-12-18T07:25:21.214Z,99.99
2018-12-18T07:26:21.236Z,99.99
2018-12-18T07:27:21.202Z,99.99
2018-12-18T07:28:21.198Z,99.99
2018-12-18T07:29:21.180Z,99.98
2018-12-18T07:30:21.159Z,99.99
2018-12-18T07:31:21.147Z,99.98
2018-12-18T07:32:21.157Z,99.99
2018-12-18T07:33:21.126Z,99.66
2018-12-18T07:34:21.127Z,99.46
2018-12-18T07:35:23.443Z,99.87
2018-12-18T07:36:21.094Z,99.98
2018-12-18T07:37:21.092Z,99.82
2018-12-18T07:38:21.079Z,99.62
2018-12-18T07:39:21.063Z,99.00
2018-12-18T07:40:21.056Z,98.83
2018-12-18T07:41:21.053Z,98.48
2018-12-18T07:42:21.039Z,98.90
2018-12-18T07:43:21.020Z,99.04
2018-12-18T07:44:21.011Z,99.10
2018-12-18T07:45:20.991Z,99.10
2018-12-18T07:46:20.998Z,98.79
2018-12-18T07:47:21.940Z,98.58
2018-12-18T07:48:20.995Z,98.79
2018-12-18T07:49:20.957Z,98.58
2018-12-18T07:50:20.952Z,98.38
2018-12-18T07:51:20.928Z,98.17
2018-12-18T07:52:20.935Z,97.86
2018-12-18T07:53:20.903Z,98.07
2018-12-18T07:54:20.903Z,97.86
2018-12-18T07:55:20.887Z,97.91
2018-12-18T07:56:20.874Z,97.75
2018-12-18T07:57:20.878Z,97.60
2018-12-18T07:58:20.885Z,97.91
2018-12-18T07:59:20.838Z,97.50
2018-12-18T08:00:20.850Z,97.65
2018-12-18T08:01:20.818Z,97.65
2018-12-18T08:02:20.822Z,97.96
2018-12-18T08:03:20.801Z,97.50
2018-12-18T08:04:21.233Z,97.39
2018-12-18T08:05:20.796Z,97.60
2018-12-18T08:06:20.784Z,97.24
2018-12-18T08:07:20.766Z,96.92
2018-12-18T08:08:20.741Z,96.92
2018-12-18T08:09:20.736Z,96.47
2018-12-18T08:10:20.727Z,96.78
2018-12-18T08:11:20.739Z,97.13
2018-12-18T08:12:20.721Z,97.19
2018-12-18T08:13:20.701Z,96.61
2018-12-18T08:14:20.682Z,96.78
2018-12-18T08:15:20.685Z,96.82
2018-12-18T08:16:20.663Z,96.82
2018-12-18T08:17:20.677Z,96.57
2018-12-18T08:18:20.632Z,96.98
2018-12-18T08:19:20.626Z,96.92
2018-12-18T08:20:20.611Z,96.36
2018-12-18T08:21:20.618Z,95.74
2018-12-18T08:22:21.943Z,96.15
2018-12-18T08:23:20.586Z,95.64
2018-12-18T08:24:20.563Z,95.37
2018-12-18T08:25:20.558Z,95.32
2018-12-18T08:26:20.552Z,95.43
2018-12-18T08:27:20.593Z,95.12
2018-12-18T08:28:20.537Z,94.81
2018-12-18T08:29:20.510Z,94.91
2018-12-18T08:30:20.509Z,94.39
2018-12-18T08:31:20.506Z,94.39
2018-12-18T08:32:20.506Z,93.66
2018-12-18T08:33:20.468Z,93.77
2018-12-18T08:34:20.484Z,93.77
2018-12-18T08:35:20.443Z,93.73
2018-12-18T08:36:20.444Z,94.18
2018-12-18T08:37:20.444Z,93.98
2018-12-18T08:38:20.416Z,94.35
2018-12-18T08:39:20.408Z,94.04
2018-12-18T08:40:20.392Z,94.35
2018-12-18T08:41:20.465Z,93.73
2018-12-18T08:42:20.390Z,94.35
2018-12-18T08:43:20.376Z,93.48
2018-12-18T08:44:20.342Z,93.41
2018-12-18T08:45:20.342Z,93.41
2018-12-18T08:46:20.333Z,92.80
2018-12-18T08:47:20.339Z,92.90
2018-12-18T08:48:20.304Z,92.76
2018-12-18T08:49:20.302Z,92.85
2018-12-18T08:50:20.277Z,92.76
2018-12-18T08:51:20.282Z,92.03
2018-12-18T08:52:20.250Z,92.81
2018-12-18T08:53:20.254Z,92.13
2018-12-18T08:54:20.243Z,92.50
2018-12-18T08:55:20.216Z,92.40
2018-12-18T08:56:20.212Z,92.61
2018-12-18T08:57:20.219Z,92.09
2018-12-18T08:58:20.202Z,92.40
2018-12-18T08:59:20.175Z,92.09
2018-12-18T09:00:20.199Z,91.94
2018-12-18T09:01:20.172Z,91.94
2018-12-18T09:02:20.159Z,92.00
2018-12-18T09:03:20.158Z,91.49
2018-12-18T09:04:20.120Z,90.45
2018-12-18T09:05:20.110Z,90.35
2018-12-18T09:06:20.096Z,90.31
2018-12-18T09:07:20.098Z,89.89
2018-12-18T09:08:20.095Z,89.34
2018-12-18T09:09:20.070Z,88.98
2018-12-18T09:10:20.057Z,87.05
2018-12-18T09:11:20.047Z,86.41
2018-12-18T09:12:20.031Z,83.92
2018-12-18T09:13:20.038Z,79.77
2018-12-18T09:14:20.018Z,78.06
2018-12-18T09:15:20.002Z,77.13
2018-12-18T09:16:19.997Z,76.38
2018-12-18T09:17:19.995Z,76.92
2018-12-18T09:18:20.006Z,74.57
2018-12-18T09:19:19.951Z,73.36
2018-12-18T09:20:19.956Z,73.06
2018-12-18T09:21:19.931Z,72.96
2018-12-18T09:22:19.923Z,73.50
2018-12-18T09:23:19.918Z,73.95
2018-12-18T09:24:19.899Z,71.86
2018-12-18T09:25:19.891Z,71.01
2018-12-18T09:26:19.879Z,71.29
2018-12-18T09:27:19.863Z,70.47
2018-12-18T09:28:19.870Z,70.16
2018-12-18T09:29:19.843Z,69.34
2018-12-18T09:30:19.837Z,71.53
2018-12-18T09:31:19.830Z,69.68
2018-12-18T09:32:19.848Z,70.40
2018-12-18T09:33:19.814Z,70.94
2018-12-18T09:34:19.787Z,71.32
2018-12-18T09:35:19.792Z,72.51
2018-12-18T09:36:19.773Z,74.15
2018-12-18T09:37:19.751Z,75.01
2018-12-18T09:38:19.783Z,75.42
2018-12-18T09:39:19.733Z,75.32
2018-12-18T09:40:19.745Z,75.66
2018-12-18T09:41:19.707Z,75.73
2018-12-18T09:42:19.696Z,75.01
2018-12-18T09:43:19.720Z,74.87
2018-12-18T09:44:19.680Z,74.32
2018-12-18T09:45:19.661Z,73.06
2018-12-18T09:46:19.656Z,72.75
2018-12-18T09:47:19.644Z,72.72
2018-12-18T09:48:19.646Z,72.41
2018-12-18T09:49:19.623Z,72.55
2018-12-18T09:50:19.625Z,73.40
2018-12-18T09:51:19.597Z,74.91
2018-12-18T09:52:19.590Z,75.32
2018-12-18T09:53:19.596Z,75.97
2018-12-18T09:54:19.569Z,75.42
2018-12-18T09:55:19.554Z,75.56
2018-12-18T09:56:19.594Z,75.97
2018-12-18T09:57:19.533Z,77.10
2018-12-18T09:58:19.612Z,76.82
2018-12-18T09:59:19.510Z,77.20
2018-12-18T10:00:19.495Z,78.85
2018-12-18T10:01:19.486Z,77.48
2018-12-18T10:02:19.476Z,76.21
2018-12-18T10:03:19.483Z,76.75
2018-12-18T10:04:19.450Z,74.63
2018-12-18T10:05:19.449Z,72.89
2018-12-18T10:06:19.432Z,72.78
2018-12-18T10:07:19.433Z,73.74
2018-12-18T10:08:19.404Z,74.05
2018-12-18T10:09:19.413Z,74.70
2018-12-18T10:10:19.396Z,75.15
2018-12-18T10:11:19.386Z,75.80
2018-12-18T10:12:19.392Z,77.03
2018-12-18T10:13:19.348Z,76.00
2018-12-18T10:14:19.348Z,77.03
2018-12-18T10:15:19.327Z,77.23
2018-12-18T10:16:19.315Z,76.21
2018-12-18T10:17:19.318Z,75.76
2018-12-18T10:18:19.370Z,75.28
2018-12-18T10:19:19.294Z,73.44
2018-12-18T10:20:19.278Z,73.33
2018-12-18T10:21:19.260Z,74.05
2018-12-18T10:22:19.247Z,74.29
2018-12-18T10:23:19.237Z,74.29
2018-12-18T10:24:19.260Z,75.04
2018-12-18T10:25:19.212Z,75.29
2018-12-18T10:26:19.203Z,76.82
2018-12-18T10:27:19.198Z,76.62
2018-12-18T10:28:19.179Z,76.82
2018-12-18T10:29:19.184Z,76.93
2018-12-18T10:30:19.163Z,75.87
2018-12-18T10:31:19.149Z,75.87
2018-12-18T10:32:19.135Z,75.76
2018-12-18T10:33:19.125Z,75.21
2018-12-18T10:34:19.127Z,74.29
2018-12-18T10:35:19.110Z,74.36
2018-12-18T10:36:19.088Z,74.08
2018-12-18T10:37:19.077Z,73.74
2018-12-18T10:38:19.068Z,73.33
2018-12-18T10:39:19.074Z,73.02
2018-12-18T10:40:19.058Z,73.44
2018-12-18T10:41:19.033Z,74.02
2018-12-18T10:42:19.038Z,75.18
2018-12-18T10:43:19.011Z,75.80
2018-12-18T10:44:19.038Z,75.83
2018-12-18T10:45:18.993Z,77.72
2018-12-18T10:46:18.990Z,77.20
2018-12-18T10:47:18.967Z,77.51
2018-12-18T10:48:18.965Z,77.72
2018-12-18T10:49:18.945Z,78.13
2018-12-18T10:50:18.951Z,78.09
2018-12-18T10:51:18.934Z,77.37
2018-12-18T10:52:18.937Z,77.44
2018-12-18T10:53:18.903Z,76.86
2018-12-18T10:54:18.887Z,77.00
2018-12-18T10:55:18.908Z,77.00
2018-12-18T10:56:18.872Z,77.34
2018-12-18T10:57:18.861Z,77.82
2018-12-18T10:58:23.955Z,78.23
2018-12-18T10:59:19.835Z,77.92
2018-12-18T11:00:18.835Z,77.48
2018-12-18T11:01:18.871Z,76.31
2018-12-18T11:02:18.821Z,75.70
2018-12-18T11:03:18.798Z,75.11
2018-12-18T11:04:18.783Z,74.80
2018-12-18T11:05:18.779Z,73.74
2018-12-18T11:06:18.755Z,73.33
2018-12-18T11:07:18.746Z,71.49
2018-12-18T11:08:18.738Z,70.06
2018-12-18T11:09:18.734Z,70.16
2018-12-18T11:10:18.743Z,70.87
2018-12-18T11:11:18.703Z,69.71
2018-12-18T11:12:18.697Z,68.35
2018-12-18T11:13:18.681Z,67.81
2018-12-18T11:14:18.683Z,66.78
2018-12-18T11:15:18.679Z,67.30
2018-12-18T11:16:19.446Z,67.36
2018-12-18T11:17:18.638Z,69.13
2018-12-18T11:18:18.623Z,69.51
2018-12-18T11:19:18.617Z,71.69
2018-12-18T11:20:18.625Z,72.34
2018-12-18T11:21:18.596Z,73.06
2018-12-18T11:22:18.583Z,73.06
2018-12-18T11:23:19.796Z,72.89
2018-12-18T11:24:18.558Z,73.40
2018-12-18T11:25:18.543Z,73.40
2018-12-18T11:26:18.562Z,72.99
2018-12-18T11:27:18.531Z,73.19
2018-12-18T11:28:18.533Z,73.61
2018-12-18T11:29:18.500Z,74.26
2018-12-18T11:30:18.488Z,74.57
2018-12-18T11:31:18.488Z,74.80
2018-12-18T11:32:18.469Z,74.87
2018-12-18T11:33:18.486Z,74.77
2018-12-18T11:34:18.469Z,72.99
2018-12-18T11:35:18.433Z,72.06
2018-12-18T11:36:18.445Z,71.66
2018-12-18T11:37:18.421Z,70.56
2018-12-18T11:38:18.402Z,69.74
2018-12-18T11:39:18.401Z,70.73
2018-12-18T11:40:18.415Z,70.63
2018-12-18T11:41:18.379Z,70.42
2018-12-18T11:42:18.362Z,71.00
2018-12-18T11:43:18.362Z,71.93
2018-12-18T11:44:18.442Z,72.20
2018-12-18T11:45:18.335Z,72.00
2018-12-18T11:46:18.449Z,72.13
2018-12-18T11:47:18.312Z,71.89
2018-12-18T11:48:18.295Z,70.66
2018-12-18T11:49:18.316Z,69.98
2018-12-18T11:50:18.272Z,69.16
2018-12-18T11:51:18.277Z,68.62
2018-12-18T11:52:18.253Z,67.73
2018-12-18T11:53:18.233Z,66.06
2018-12-18T11:54:18.238Z,66.30
2018-12-18T11:55:18.226Z,66.40
2018-12-18T11:56:18.227Z,66.91
2018-12-18T11:57:18.186Z,66.74
2018-12-18T11:58:18.182Z,67.35
2018-12-18T11:59:18.197Z,67.59
2018-12-18T12:00:18.178Z,68.27
2018-12-18T12:01:18.157Z,70.15
2018-12-18T12:02:18.142Z,71.00
2018-12-18T12:03:18.119Z,71.17
2018-12-18T12:04:18.109Z,72.34
2018-12-18T12:05:18.098Z,72.44
2018-12-18T12:06:22.982Z,72.34
2018-12-18T12:07:19.072Z,72.58
2018-12-18T12:08:18.077Z,72.81
2018-12-18T12:09:18.051Z,73.23
2018-12-18T12:10:18.043Z,73.95
2018-12-18T12:11:18.049Z,74.15
2018-12-18T12:12:18.033Z,74.67
2018-12-18T12:13:18.008Z,74.67
2018-12-18T12:14:18.011Z,74.36
2018-12-18T12:15:17.989Z,74.80
2018-12-18T12:16:17.987Z,74.98
2018-12-18T12:17:18.074Z,74.40
2018-12-18T12:18:17.960Z,74.87
2018-12-18T12:19:17.948Z,74.46
2018-12-18T12:20:17.931Z,74.26
2018-12-18T12:21:17.931Z,74.29
2018-12-18T12:22:17.905Z,74.19
2018-12-18T12:23:18.981Z,73.74
2018-12-18T12:24:17.885Z,73.98
2018-12-18T12:25:17.881Z,74.40
2018-12-18T12:26:18.421Z,74.19
2018-12-18T12:27:17.858Z,74.50
2018-12-18T12:28:17.840Z,74.46
2018-12-18T12:29:17.829Z,74.15
2018-12-18T12:30:17.834Z,74.26
2018-12-18T12:31:17.839Z,74.57
2018-12-18T12:32:17.830Z,73.74
2018-12-18T12:33:17.786Z,73.85
2018-12-18T12:34:17.775Z,73.33
2018-12-18T12:35:17.785Z,73.95
2018-12-18T12:36:17.825Z,73.71
2018-12-18T12:37:17.762Z,73.64
2018-12-18T12:38:17.769Z,73.64
2018-12-18T12:39:17.721Z,73.23
2018-12-18T12:40:17.708Z,73.64
2018-12-18T12:41:17.715Z,73.13
2018-12-18T12:42:17.686Z,72.41
2018-12-18T12:43:17.679Z,72.81
2018-12-18T12:44:17.662Z,73.74
2018-12-18T12:45:17.650Z,73.44
2018-12-18T12:46:17.655Z,73.02
2018-12-18T12:47:17.633Z,72.89
2018-12-18T12:48:17.626Z,72.92
2018-12-18T12:49:17.609Z,73.13
2018-12-18T12:50:17.595Z,73.02
2018-12-18T12:51:17.596Z,73.19
2018-12-18T12:52:17.578Z,73.02